Time;durP1;ratioP1;P1;durP2;ratioP2;P2;SDS_P1;SDS_P2;PMS_P1;PMS_P2;Temp;Humidity;BMP_temperature;BMP_pressure;BME280_temperature;BME280_humidity;BME280_pressure;Samples;Min_cycle;Max_cycle;Signal;HPM_P1;HPM_P2
2023/12/24 00:00:47;;;;;;;6.93;2.97;;;9.40;99.90;;;;;;6300592;22;20146;-76
2023/12/24 00:03:12;;;;;;;11.48;3.28;;;9.30;99.90;;;;;;6300024;22;20019;-76
2023/12/24 00:05:38;;;;;;;14.77;4.00;;;9.40;99.90;;;;;;6300201;22;20023;-77
2023/12/24 00:08:04;;;;;;;7.88;2.90;;;9.30;99.90;;;;;;6300090;22;20015;-76
2023/12/24 00:10:30;;;;;;;10.13;3.20;;;9.40;99.90;;;;;;6299546;22;20015;-76
2023/12/24 00:12:55;;;;;;;16.60;3.60;;;9.40;99.90;;;;;;6299730;22;20091;-75
2023/12/24 00:15:21;;;;;;;9.88;3.53;;;9.40;99.90;;;;;;6301244;22;20492;-75
2023/12/24 00:17:47;;;;;;;9.15;3.40;;;9.40;99.90;;;;;;6299426;22;20019;-76
2023/12/24 00:20:12;;;;;;;17.63;3.80;;;9.50;99.90;;;;;;6301783;22;20022;-76
2023/12/24 00:22:38;;;;;;;14.23;3.15;;;9.40;99.90;;;;;;6299185;22;20089;-77
2023/12/24 00:25:04;;;;;;;14.93;3.58;;;9.40;99.90;;;;;;6300721;22;20027;-77
2023/12/24 00:27:30;;;;;;;15.80;3.53;;;9.40;99.90;;;;;;6298974;22;20038;-77
2023/12/24 00:29:56;;;;;;;14.20;3.40;;;9.40;99.90;;;;;;6299428;22;20011;-77
2023/12/24 00:32:21;;;;;;;10.75;3.45;;;9.30;99.90;;;;;;6301075;22;20019;-77
2023/12/24 00:34:47;;;;;;;9.98;3.47;;;9.40;99.90;;;;;;6299278;22;20518;-77
2023/12/24 00:37:13;;;;;;;13.48;3.30;;;9.40;99.90;;;;;;6300971;22;20023;-77
2023/12/24 00:39:38;;;;;;;11.15;3.53;;;9.40;99.90;;;;;;6298915;22;20072;-77
2023/12/24 00:42:04;;;;;;;9.05;3.17;;;9.40;99.90;;;;;;6300816;22;20020;-77
2023/12/24 00:44:30;;;;;;;10.75;3.00;;;9.40;99.90;;;;;;6301454;22;20015;-77
2023/12/24 00:46:56;;;;;;;13.73;3.03;;;9.40;99.90;;;;;;6299637;22;20416;-77
2023/12/24 00:49:21;;;;;;;10.70;3.00;;;9.40;99.90;;;;;;6301411;22;20043;-76
2023/12/24 00:51:47;;;;;;;10.73;2.92;;;9.40;99.90;;;;;;6301401;22;20046;-77
2023/12/24 00:54:13;;;;;;;9.63;3.03;;;9.50;99.90;;;;;;6300853;22;20320;-78
2023/12/24 00:56:39;;;;;;;14.70;3.53;;;9.40;99.90;;;;;;6299026;22;20023;-77
2023/12/24 00:59:05;;;;;;;8.55;2.90;;;9.40;99.90;;;;;;6300723;22;20015;-77
2023/12/24 01:01:30;;;;;;;11.52;2.67;;;9.30;99.90;;;;;;6300381;22;20015;-77
2023/12/24 01:03:56;;;;;;;9.70;3.40;;;9.40;99.90;;;;;;6300116;22;20090;-77
2023/12/24 01:06:22;;;;;;;12.00;3.40;;;9.40;99.90;;;;;;6301202;22;20016;-77
2023/12/24 01:08:47;;;;;;;8.48;3.17;;;9.50;99.90;;;;;;6301085;22;20102;-77
2023/12/24 01:11:13;;;;;;;6.05;3.38;;;9.40;99.90;;;;;;6301127;22;20026;-76
2023/12/24 01:13:39;;;;;;;9.93;3.17;;;9.40;99.90;;;;;;6300994;22;20069;-77
2023/12/24 01:16:05;;;;;;;11.88;2.95;;;9.40;99.90;;;;;;6300768;22;20016;-77
2023/12/24 01:18:30;;;;;;;12.13;3.60;;;9.40;99.90;;;;;;6300743;22;20103;-77
2023/12/24 01:20:56;;;;;;;9.73;2.63;;;9.50;99.90;;;;;;6299071;22;20015;-77
2023/12/24 01:23:22;;;;;;;9.40;3.35;;;9.40;99.90;;;;;;6298589;22;20023;-77
2023/12/24 01:25:48;;;;;;;10.40;2.60;;;9.40;99.90;;;;;;6273080;22;20015;-76
2023/12/24 01:28:14;;;;;;;10.35;3.22;;;9.40;99.90;;;;;;6299179;22;20074;-76
2023/12/24 01:30:40;;;;;;;10.45;2.63;;;9.40;99.90;;;;;;6301224;22;20022;-76
2023/12/24 01:33:06;;;;;;;11.35;2.83;;;9.40;99.90;;;;;;6299330;22;20470;-76
2023/12/24 01:35:32;;;;;;;10.95;2.88;;;9.40;99.90;;;;;;6274008;22;20019;-77
2023/12/24 01:37:58;;;;;;;15.68;3.53;;;9.40;99.90;;;;;;6300795;22;20470;-77
2023/12/24 01:40:23;;;;;;;12.23;3.03;;;9.40;99.90;;;;;;6300931;22;20015;-76
2023/12/24 01:42:49;;;;;;;8.63;2.65;;;9.40;99.90;;;;;;6301188;22;20038;-76
2023/12/24 01:45:15;;;;;;;8.50;2.67;;;9.40;99.90;;;;;;6300948;22;20031;-76
2023/12/24 01:47:42;;;;;;;6.75;2.53;;;9.50;99.90;;;;;;6301415;22;20019;-75
2023/12/24 01:50:09;;;;;;;11.27;3.75;;;9.40;99.90;;;;;;6301077;22;20069;-75
2023/12/24 01:52:35;;;;;;;8.40;2.75;;;9.40;99.90;;;;;;6302190;22;20017;-75
2023/12/24 01:55:01;;;;;;;7.78;2.72;;;9.40;99.90;;;;;;6302657;22;20019;-75
2023/12/24 01:57:31;;;;;;;8.27;2.65;;;9.40;99.90;;;;;;6302746;22;20088;-75
2023/12/24 01:59:58;;;;;;;11.15;2.53;;;9.40;99.90;;;;;;6302556;22;20133;-76
2023/12/24 02:02:27;;;;;;;10.30;2.95;;;9.40;99.90;;;;;;6300478;22;20502;-76
2023/12/24 02:04:53;;;;;;;8.93;2.42;;;9.40;99.90;;;;;;6300818;22;20046;-75
2023/12/24 02:07:20;;;;;;;10.02;2.75;;;9.40;99.90;;;;;;6300235;22;20069;-75
2023/12/24 02:09:46;;;;;;;8.07;2.63;;;9.40;99.90;;;;;;6300480;22;20015;-76
2023/12/24 02:12:11;;;;;;;6.93;2.45;;;9.50;99.90;;;;;;6274857;22;20011;-75
2023/12/24 02:14:37;;;;;;;6.38;2.72;;;9.40;99.90;;;;;;6300814;22;20023;-75
2023/12/24 02:17:05;;;;;;;10.30;2.40;;;9.40;99.90;;;;;;6300586;22;20022;-75
2023/12/24 02:19:30;;;;;;;5.32;2.00;;;9.40;99.90;;;;;;6302179;22;20369;-75
2023/12/24 02:21:56;;;;;;;5.85;2.08;;;9.40;99.90;;;;;;6300388;22;20050;-74
2023/12/24 02:24:22;;;;;;;7.97;2.10;;;9.30;99.90;;;;;;6300450;22;20119;-74
2023/12/24 02:27:11;;;;;;;6.68;2.38;;;9.40;99.90;;;;;;6302364;22;20036;-75
2023/12/24 02:29:46;;;;;;;3.90;1.80;;;9.40;99.90;;;;;;6300607;22;20090;-75
2023/12/24 02:32:17;;;;;;;6.70;2.10;;;9.40;99.90;;;;;;6302746;22;20011;-75
2023/12/24 02:34:49;;;;;;;2.88;1.60;;;9.30;99.90;;;;;;6302106;22;20019;-75
2023/12/24 02:37:15;;;;;;;4.53;2.03;;;9.40;99.90;;;;;;6300328;22;20019;-75
2023/12/24 02:39:42;;;;;;;6.65;2.10;;;9.40;99.90;;;;;;6300291;22;20344;-75
2023/12/24 02:42:08;;;;;;;4.00;2.08;;;9.40;99.90;;;;;;6300045;22;20030;-75
2023/12/24 02:44:38;;;;;;;6.45;2.13;;;9.40;99.90;;;;;;6300100;22;20019;-76
2023/12/24 02:47:04;;;;;;;4.75;2.30;;;9.40;99.90;;;;;;6299893;22;20018;-76
2023/12/24 02:49:30;;;;;;;3.33;2.28;;;9.40;99.90;;;;;;6301552;22;20065;-76
2023/12/24 02:51:56;;;;;;;4.82;2.33;;;9.40;99.90;;;;;;6299992;22;20431;-76
2023/12/24 02:54:21;;;;;;;2.83;2.50;;;9.40;99.90;;;;;;6301823;22;20011;-76
2023/12/24 02:56:47;;;;;;;4.80;2.55;;;9.30;99.90;;;;;;6299770;22;20458;-76
2023/12/24 02:59:13;;;;;;;5.88;2.25;;;9.40;99.90;;;;;;6301833;22;20103;-76
2023/12/24 03:01:38;;;;;;;6.63;2.97;;;9.30;99.90;;;;;;6301878;22;20015;-76
2023/12/24 03:04:04;;;;;;;5.80;3.40;;;9.40;99.90;;;;;;6301396;22;20243;-76
2023/12/24 03:06:30;;;;;;;5.55;3.15;;;9.40;99.90;;;;;;6300062;22;20050;-76
2023/12/24 03:08:55;;;;;;;4.85;3.03;;;9.40;99.90;;;;;;6300032;22;20064;-75
2023/12/24 03:11:21;;;;;;;6.50;3.05;;;9.40;99.90;;;;;;6299995;22;20023;-76
2023/12/24 03:13:47;;;;;;;6.95;2.80;;;9.40;99.90;;;;;;6300225;22;20015;-75
2023/12/24 03:16:12;;;;;;;5.50;2.45;;;9.30;99.90;;;;;;6300139;22;20019;-75
2023/12/24 03:18:38;;;;;;;5.93;2.35;;;9.30;99.90;;;;;;6301724;22;20019;-76
2023/12/24 03:21:04;;;;;;;6.80;2.55;;;9.40;99.90;;;;;;6299597;22;20094;-75
2023/12/24 03:23:30;;;;;;;4.22;2.22;;;9.40;99.90;;;;;;6299767;22;20407;-76
2023/12/24 03:25:56;;;;;;;5.25;2.50;;;9.30;99.90;;;;;;6299861;22;20082;-76
2023/12/24 03:28:22;;;;;;;4.88;2.47;;;9.40;99.90;;;;;;6300020;22;20043;-76
2023/12/24 03:30:47;;;;;;;5.97;2.67;;;9.40;99.90;;;;;;6301887;22;20023;-76
2023/12/24 03:33:13;;;;;;;4.88;2.22;;;9.30;99.90;;;;;;6299808;22;20026;-76
2023/12/24 03:35:39;;;;;;;4.80;2.50;;;9.30;99.90;;;;;;6301640;22;20022;-76
2023/12/24 03:38:04;;;;;;;7.38;2.47;;;9.30;99.90;;;;;;6299961;22;20061;-76
2023/12/24 03:40:30;;;;;;;6.22;2.47;;;9.40;99.90;;;;;;6299738;22;20328;-76
2023/12/24 03:42:56;;;;;;;5.20;2.33;;;9.40;99.90;;;;;;6300210;22;20141;-76
2023/12/24 03:45:21;;;;;;;3.63;2.00;;;9.40;99.90;;;;;;6299359;22;20026;-77
2023/12/24 03:47:47;;;;;;;3.67;2.00;;;9.40;99.90;;;;;;6299344;22;20015;-76
2023/12/24 03:50:13;;;;;;;5.85;2.50;;;9.50;99.90;;;;;;6299868;22;20011;-76
2023/12/24 03:52:40;;;;;;;5.35;2.28;;;9.40;99.90;;;;;;6299697;22;20023;-77
2023/12/24 03:55:06;;;;;;;3.95;2.28;;;9.40;99.90;;;;;;6299642;22;20018;-77
2023/12/24 03:57:31;;;;;;;7.38;2.10;;;9.50;99.90;;;;;;6299162;22;20011;-78
2023/12/24 03:59:57;;;;;;;3.97;2.42;;;9.50;99.90;;;;;;6299318;22;20066;-77
2023/12/24 04:02:24;;;;;;;6.63;2.72;;;9.50;99.90;;;;;;6299167;22;20015;-77
2023/12/24 04:04:50;;;;;;;5.93;2.40;;;9.50;99.90;;;;;;6299502;22;20015;-77
2023/12/24 04:07:16;;;;;;;5.65;2.10;;;9.50;99.90;;;;;;6299524;22;20470;-77
2023/12/24 04:09:42;;;;;;;3.00;2.13;;;9.50;99.90;;;;;;6299261;22;20451;-77
2023/12/24 04:12:08;;;;;;;2.92;1.98;;;9.50;99.90;;;;;;6273467;22;20020;-77
2023/12/24 04:14:38;;;;;;;3.50;2.03;;;9.50;99.90;;;;;;6299211;22;20201;-77
2023/12/24 04:17:07;;;;;;;3.13;1.95;;;9.50;99.90;;;;;;6299120;22;20353;-77
2023/12/24 04:19:33;;;;;;;2.95;2.10;;;9.50;99.90;;;;;;6299199;22;20023;-78
2023/12/24 04:21:58;;;;;;;2.08;1.80;;;9.50;99.90;;;;;;6299188;22;20288;-78
2023/12/24 04:24:25;;;;;;;3.97;2.20;;;9.50;99.90;;;;;;6300760;22;20027;-77
2023/12/24 04:26:50;;;;;;;2.05;1.85;;;9.50;99.90;;;;;;6299133;22;20018;-77
2023/12/24 04:29:16;;;;;;;2.30;2.10;;;9.50;99.90;;;;;;6300785;22;20016;-77
2023/12/24 04:31:42;;;;;;;3.08;2.88;;;9.50;99.90;;;;;;6298887;22;20106;-77
2023/12/24 04:34:08;;;;;;;4.53;1.90;;;9.50;99.90;;;;;;6299153;22;20019;-77
2023/12/24 04:36:34;;;;;;;5.22;1.90;;;9.50;99.90;;;;;;6301084;22;20050;-77
2023/12/24 04:39:01;;;;;;;4.93;2.35;;;9.50;99.90;;;;;;6301315;22;20019;-77
2023/12/24 04:41:28;;;;;;;2.45;1.63;;;9.60;99.90;;;;;;6300952;22;20100;-77
2023/12/24 04:43:54;;;;;;;3.75;1.83;;;9.60;99.90;;;;;;6301270;22;20015;-77
2023/12/24 04:46:20;;;;;;;2.05;1.63;;;9.50;99.90;;;;;;6301129;22;20269;-76
2023/12/24 04:48:46;;;;;;;3.50;1.67;;;9.70;99.90;;;;;;6300914;22;20018;-76
2023/12/24 04:51:11;;;;;;;2.30;1.90;;;9.60;99.90;;;;;;6299072;22;20015;-75
2023/12/24 04:53:37;;;;;;;2.50;1.80;;;9.60;99.90;;;;;;6299004;22;20144;-76
2023/12/24 04:56:04;;;;;;;1.77;1.67;;;9.60;99.90;;;;;;6298902;22;20068;-76
2023/12/24 04:58:29;;;;;;;1.73;1.63;;;9.60;99.90;;;;;;6298700;22;20015;-76
2023/12/24 05:00:57;;;;;;;1.98;1.77;;;9.70;99.90;;;;;;6298418;22;20323;-76
2023/12/24 05:03:23;;;;;;;2.28;1.55;;;9.60;99.90;;;;;;6298994;22;20023;-75
2023/12/24 05:05:48;;;;;;;1.40;1.30;;;9.60;99.90;;;;;;6273339;22;20029;-75
2023/12/24 05:08:14;;;;;;;2.00;1.90;;;9.70;99.90;;;;;;6299368;22;20019;-76
2023/12/24 05:10:40;;;;;;;2.67;1.75;;;9.70;99.90;;;;;;6300937;22;20049;-76
2023/12/24 05:13:06;;;;;;;2.42;1.70;;;9.70;99.90;;;;;;6303264;22;20070;-75
2023/12/24 05:15:31;;;;;;;2.13;1.35;;;9.60;99.90;;;;;;6300819;22;20082;-76
2023/12/24 05:17:57;;;;;;;1.95;1.63;;;9.70;99.90;;;;;;6302913;22;20378;-75
2023/12/24 05:20:23;;;;;;;1.65;1.55;;;9.80;99.90;;;;;;6301032;22;20104;-75
2023/12/24 05:22:48;;;;;;;2.35;1.70;;;9.80;99.90;;;;;;6301095;22;20098;-76
2023/12/24 05:25:14;;;;;;;1.75;1.65;;;9.80;99.90;;;;;;6302913;22;20021;-75
2023/12/24 05:27:40;;;;;;;1.80;1.45;;;9.80;99.90;;;;;;6302971;22;20014;-76
2023/12/24 05:30:09;;;;;;;1.90;1.42;;;9.80;99.90;;;;;;6302510;22;20094;-76
2023/12/24 05:32:34;;;;;;;2.38;1.65;;;9.80;99.90;;;;;;6302876;22;20379;-75
2023/12/24 05:35:00;;;;;;;2.22;1.73;;;9.80;99.90;;;;;;6301075;22;20113;-76
2023/12/24 05:37:26;;;;;;;2.13;1.45;;;9.80;99.90;;;;;;6302801;22;20011;-76
2023/12/24 05:39:51;;;;;;;1.70;1.60;;;9.80;99.90;;;;;;6275388;22;20011;-76
2023/12/24 05:42:17;;;;;;;4.00;2.15;;;9.90;99.90;;;;;;6302349;22;20022;-75
2023/12/24 05:44:43;;;;;;;1.55;1.45;;;9.80;99.90;;;;;;6302798;22;20019;-75
2023/12/24 05:47:08;;;;;;;2.10;1.90;;;9.80;99.90;;;;;;6302753;22;20025;-75
2023/12/24 05:49:38;;;;;;;1.73;1.63;;;9.90;99.90;;;;;;6302938;22;20017;-76
2023/12/24 05:52:03;;;;;;;1.85;1.60;;;9.90;99.90;;;;;;6301329;22;20608;-75
2023/12/24 05:54:29;;;;;;;4.32;1.55;;;9.90;99.90;;;;;;6300914;22;20030;-75
2023/12/24 05:56:55;;;;;;;3.60;1.90;;;10.00;99.90;;;;;;6300503;22;20459;-75
2023/12/24 05:59:22;;;;;;;1.48;1.38;;;9.90;99.90;;;;;;6300694;22;20121;-75
2023/12/24 06:01:48;;;;;;;1.50;1.40;;;9.90;99.90;;;;;;6302560;22;20015;-75
2023/12/24 06:04:14;;;;;;;1.80;1.70;;;9.90;99.90;;;;;;6302312;22;20020;-77
2023/12/24 06:06:41;;;;;;;3.10;1.77;;;10.00;99.90;;;;;;6301731;22;20577;-77
2023/12/24 06:09:06;;;;;;;1.60;1.50;;;10.00;99.90;;;;;;6302822;22;20011;-76
2023/12/24 06:11:32;;;;;;;2.63;1.85;;;10.00;99.90;;;;;;6300854;22;20060;-76
2023/12/24 06:13:58;;;;;;;2.58;1.85;;;10.00;99.90;;;;;;6302337;22;20015;-76
2023/12/24 06:16:24;;;;;;;2.00;1.90;;;10.00;99.90;;;;;;6302711;22;20375;-76
2023/12/24 06:18:49;;;;;;;2.25;1.90;;;10.10;99.90;;;;;;6302704;22;20023;-76
2023/12/24 06:21:15;;;;;;;2.20;1.90;;;10.00;99.90;;;;;;6300498;22;20026;-76
2023/12/24 06:23:41;;;;;;;3.22;1.90;;;10.00;99.90;;;;;;6302625;22;20011;-76
2023/12/24 06:26:06;;;;;;;2.38;1.98;;;10.10;99.90;;;;;;6302552;22;20133;-76
2023/12/24 06:28:32;;;;;;;3.20;1.90;;;10.10;99.90;;;;;;6302624;22;20106;-76
2023/12/24 06:30:59;;;;;;;3.13;2.13;;;10.10;99.90;;;;;;6300660;22;20042;-75
2023/12/24 06:33:26;;;;;;;3.45;2.17;;;10.10;99.90;;;;;;6300624;22;20130;-76
2023/12/24 06:35:51;;;;;;;6.63;2.47;;;10.10;99.90;;;;;;6300634;22;20026;-75
2023/12/24 06:38:17;;;;;;;4.30;2.15;;;10.10;99.90;;;;;;6300559;22;20436;-77
2023/12/24 06:40:43;;;;;;;5.35;2.78;;;10.10;99.90;;;;;;6299886;22;20019;-76
2023/12/24 06:43:08;;;;;;;5.97;2.92;;;10.20;99.90;;;;;;6274748;22;20022;-76
2023/12/24 06:45:34;;;;;;;4.28;3.15;;;10.20;99.90;;;;;;6301571;22;20019;-76
2023/12/24 06:48:02;;;;;;;5.75;2.75;;;10.20;99.90;;;;;;6300371;22;20133;-75
2023/12/24 06:50:29;;;;;;;10.27;4.32;;;10.20;99.90;;;;;;6300420;22;20343;-75
2023/12/24 06:52:55;;;;;;;11.07;3.58;;;10.20;99.90;;;;;;6274772;22;20081;-75
2023/12/24 06:55:21;;;;;;;5.40;3.50;;;10.20;99.90;;;;;;6300273;22;20015;-75
2023/12/24 06:57:48;;;;;;;12.57;4.20;;;10.30;99.90;;;;;;6300362;22;20047;-75
2023/12/24 07:00:14;;;;;;;10.45;3.92;;;10.20;99.90;;;;;;6300491;22;20019;-76
2023/12/24 07:02:39;;;;;;;10.00;4.03;;;10.30;99.90;;;;;;6300672;22;20062;-76
2023/12/24 07:05:05;;;;;;;13.45;4.55;;;10.30;99.90;;;;;;6300262;22;20015;-76
2023/12/24 07:07:31;;;;;;;7.13;4.57;;;10.30;99.90;;;;;;6300242;22;20008;-76
2023/12/24 07:09:57;;;;;;;13.88;4.93;;;10.30;99.90;;;;;;6300123;22;20088;-76
2023/12/24 07:12:22;;;;;;;10.82;4.47;;;10.30;99.90;;;;;;6302122;22;20021;-76
2023/12/24 07:14:48;;;;;;;12.13;4.80;;;10.30;99.90;;;;;;6300215;22;20023;-77
2023/12/24 07:17:14;;;;;;;13.25;4.65;;;10.30;99.90;;;;;;6300183;22;20015;-76
2023/12/24 07:19:39;;;;;;;14.27;4.10;;;10.30;99.90;;;;;;6300063;22;20023;-77
2023/12/24 07:22:05;;;;;;;10.93;5.25;;;10.40;99.90;;;;;;6300204;22;20090;-77
2023/12/24 07:24:30;;;;;;;9.77;4.30;;;10.40;99.90;;;;;;6301556;22;20114;-77
2023/12/24 07:26:56;;;;;;;14.27;4.97;;;10.40;99.90;;;;;;6301826;22;20011;-77
2023/12/24 07:29:22;;;;;;;15.05;4.55;;;10.40;99.90;;;;;;6300207;22;20103;-77
2023/12/24 07:31:47;;;;;;;13.27;4.15;;;10.40;99.90;;;;;;6299680;22;20033;-77
2023/12/24 07:34:13;;;;;;;13.18;4.13;;;10.50;99.90;;;;;;6302094;22;20026;-77
2023/12/24 07:36:39;;;;;;;11.45;4.28;;;10.40;99.90;;;;;;6301923;22;20478;-78
2023/12/24 07:39:04;;;;;;;13.57;4.32;;;10.50;99.90;;;;;;6300016;22;20077;-77
2023/12/24 07:41:31;;;;;;;13.32;4.25;;;10.40;99.90;;;;;;6300245;22;20069;-77
2023/12/24 07:43:57;;;;;;;7.95;3.67;;;10.50;99.90;;;;;;6300441;22;20087;-77
2023/12/24 07:46:22;;;;;;;19.92;4.65;;;10.50;99.90;;;;;;6303360;22;20470;-78
2023/12/24 07:48:48;;;;;;;12.40;3.55;;;10.50;99.90;;;;;;6305735;22;20018;-77
2023/12/24 07:51:15;;;;;;;11.95;3.75;;;10.50;99.90;;;;;;6304551;22;20015;-76
2023/12/24 07:53:40;;;;;;;10.50;4.00;;;10.50;99.90;;;;;;6304019;22;20030;-78
2023/12/24 07:56:08;;;;;;;13.48;3.97;;;10.60;99.90;;;;;;6305382;22;20022;-78
2023/12/24 07:58:34;;;;;;;17.65;4.20;;;10.60;99.90;;;;;;6304741;22;20023;-77
2023/12/24 08:00:59;;;;;;;12.13;3.78;;;10.60;99.90;;;;;;6302423;22;20049;-77
2023/12/24 08:03:25;;;;;;;9.27;3.70;;;10.60;99.90;;;;;;6301421;22;20047;-77
2023/12/24 08:05:51;;;;;;;9.77;3.67;;;10.60;99.90;;;;;;6301217;22;20430;-77
2023/12/24 08:08:16;;;;;;;15.00;4.20;;;10.60;99.90;;;;;;6301376;22;20019;-78
2023/12/24 08:10:42;;;;;;;12.73;3.72;;;10.60;99.90;;;;;;6301625;22;20447;-78
2023/12/24 08:13:08;;;;;;;15.35;4.53;;;10.60;99.90;;;;;;6299818;22;20170;-79
2023/12/24 08:15:33;;;;;;;13.60;4.85;;;10.60;99.90;;;;;;6301347;22;20095;-78
2023/12/24 08:17:59;;;;;;;10.90;4.07;;;10.70;99.90;;;;;;6301426;22;20046;-79
2023/12/24 08:20:25;;;;;;;13.27;3.70;;;10.70;99.90;;;;;;6299761;22;20015;-79
2023/12/24 08:22:50;;;;;;;12.68;3.72;;;10.70;99.90;;;;;;6299394;22;20086;-80
2023/12/24 08:25:16;;;;;;;12.68;4.38;;;10.70;99.90;;;;;;6301086;22;20015;-80
2023/12/24 08:27:42;;;;;;;15.63;3.72;;;10.70;99.90;;;;;;6298741;22;20015;-78
2023/12/24 08:30:08;;;;;;;13.68;3.95;;;10.70;99.90;;;;;;6301814;22;20106;-81
2023/12/24 08:32:34;;;;;;;9.15;3.63;;;10.70;99.90;;;;;;6299271;22;20019;-78
2023/12/24 08:35:00;;;;;;;10.40;4.50;;;10.70;99.90;;;;;;6301024;22;20015;-79
2023/12/24 08:37:25;;;;;;;14.52;3.45;;;10.80;99.90;;;;;;6300943;22;20386;-79
2023/12/24 08:39:51;;;;;;;13.52;3.67;;;10.80;99.90;;;;;;6301087;22;20082;-79
2023/12/24 08:42:17;;;;;;;10.43;3.92;;;10.80;99.90;;;;;;6300804;22;20019;-80
2023/12/24 08:44:43;;;;;;;15.73;4.25;;;10.80;99.90;;;;;;6301378;22;20062;-80
2023/12/24 08:47:08;;;;;;;12.65;3.38;;;10.80;99.90;;;;;;6299760;22;20031;-80
2023/12/24 08:49:34;;;;;;;11.48;3.65;;;10.80;99.90;;;;;;6299609;22;20019;-81
2023/12/24 08:52:00;;;;;;;14.63;3.95;;;10.80;99.90;;;;;;6299291;22;20022;-80
2023/12/24 08:54:25;;;;;;;13.43;3.35;;;10.80;99.90;;;;;;6299679;22;20022;-80
2023/12/24 08:56:51;;;;;;;13.90;4.07;;;10.80;99.90;;;;;;6301074;22;20094;-80
2023/12/24 08:59:17;;;;;;;14.10;3.50;;;10.80;99.90;;;;;;6273916;22;20011;-80
2023/12/24 09:01:43;;;;;;;15.43;3.60;;;10.80;99.90;;;;;;6301596;22;20042;-79
2023/12/24 09:04:08;;;;;;;13.93;4.00;;;10.80;99.90;;;;;;6300553;22;20095;-80
2023/12/24 09:06:37;;;;;;;14.75;3.88;;;10.80;99.90;;;;;;6300907;22;20182;-79
2023/12/24 09:09:04;;;;;;;13.55;4.32;;;10.80;99.90;;;;;;6301256;22;20019;-79
2023/12/24 09:11:29;;;;;;;12.27;4.65;;;10.80;99.90;;;;;;6301594;22;20345;-79
2023/12/24 09:13:55;;;;;;;16.48;3.97;;;10.90;99.90;;;;;;6301406;22;20098;-80
2023/12/24 09:16:21;;;;;;;17.20;3.60;;;10.90;99.90;;;;;;6301469;22;20107;-80
2023/12/24 09:18:46;;;;;;;13.68;4.00;;;10.90;99.90;;;;;;6299364;22;20701;-79
2023/12/24 09:21:12;;;;;;;10.77;3.20;;;10.90;99.90;;;;;;6299397;22;20020;-76
2023/12/24 09:23:38;;;;;;;10.13;3.08;;;10.90;99.90;;;;;;6301674;22;20039;-75
2023/12/24 09:26:03;;;;;;;10.80;3.75;;;10.90;99.90;;;;;;6302038;22;20018;-75
2023/12/24 09:28:29;;;;;;;6.13;3.00;;;10.90;99.90;;;;;;6302886;22;20013;-80
2023/12/24 09:30:56;;;;;;;12.25;3.17;;;11.00;99.90;;;;;;6275622;22;20332;-81
2023/12/24 09:33:21;;;;;;;12.43;3.55;;;11.00;99.90;;;;;;6300407;22;20015;-78
2023/12/24 09:35:49;;;;;;;10.93;3.42;;;11.00;99.90;;;;;;6299746;22;20015;-79
2023/12/24 09:38:14;;;;;;;10.38;3.15;;;11.00;99.90;;;;;;6300551;22;20022;-78
2023/12/24 09:40:40;;;;;;;7.97;3.40;;;11.00;99.90;;;;;;6302370;22;20015;-81
2023/12/24 09:43:06;;;;;;;10.60;3.90;;;11.00;99.90;;;;;;6300529;22;20026;-82
2023/12/24 09:45:34;;;;;;;8.88;2.92;;;11.00;99.90;;;;;;6300434;22;20015;-81
2023/12/24 09:48:00;;;;;;;10.20;3.10;;;11.00;99.90;;;;;;6300116;22;20368;-81
2023/12/24 09:50:26;;;;;;;10.57;3.30;;;11.00;99.90;;;;;;6300087;22;20054;-80
2023/12/24 09:52:53;;;;;;;11.35;3.28;;;11.10;99.90;;;;;;6300482;22;20343;-80
2023/12/24 09:55:18;;;;;;;13.50;3.40;;;11.00;99.90;;;;;;6300155;22;20015;-81
2023/12/24 09:57:44;;;;;;;10.13;3.80;;;11.10;99.90;;;;;;6303391;22;20328;-82
2023/12/24 10:00:10;;;;;;;8.48;3.63;;;11.10;99.90;;;;;;6300878;22;20465;-81
2023/12/24 10:02:36;;;;;;;10.68;3.25;;;11.10;99.90;;;;;;6301934;22;20439;-81
2023/12/24 10:05:06;;;;;;;7.78;3.60;;;11.10;99.90;;;;;;6301811;22;20023;-82
2023/12/24 10:07:39;;;;;;;9.23;3.08;;;11.10;99.90;;;;;;6302072;22;20088;-82
2023/12/24 10:10:08;;;;;;;14.43;4.20;;;11.10;99.90;;;;;;6303780;22;20011;-81
2023/12/24 10:12:33;;;;;;;13.25;3.28;;;11.10;99.90;;;;;;6276237;22;20015;-81
2023/12/24 10:15:00;;;;;;;11.90;4.20;;;11.20;99.90;;;;;;6303738;22;20085;-81
2023/12/24 10:17:33;;;;;;;15.32;4.18;;;11.20;99.90;;;;;;6300797;22;20015;-78
2023/12/24 10:20:03;;;;;;;13.15;3.33;;;11.20;99.90;;;;;;6299132;22;20022;-77
2023/12/24 10:22:29;;;;;;;15.27;3.38;;;11.20;99.90;;;;;;6300875;22;20019;-78
2023/12/24 10:25:06;;;;;;;8.52;2.90;;;11.20;99.90;;;;;;6275792;22;20043;-79
2023/12/24 10:27:32;;;;;;;16.67;3.42;;;11.20;99.90;;;;;;6301820;22;20040;-79
2023/12/24 10:30:10;;;;;;;11.25;3.78;;;11.20;99.90;;;;;;6302143;22;20019;-83
2023/12/24 10:32:35;;;;;;;12.82;3.47;;;11.20;99.90;;;;;;6276527;22;20015;-83
2023/12/24 10:35:02;;;;;;;8.07;3.33;;;11.20;99.90;;;;;;6302033;22;20118;-80
2023/12/24 10:37:29;;;;;;;14.38;3.42;;;11.20;99.90;;;;;;6301835;22;20068;-84
2023/12/24 10:40:09;;;;;;;14.45;3.28;;;11.20;99.90;;;;;;6302095;22;20011;-83
2023/12/24 10:42:38;;;;;;;12.07;3.10;;;11.20;99.90;;;;;;6301621;22;20092;-85
2023/12/24 10:45:05;;;;;;;11.73;2.67;;;11.30;99.90;;;;;;6276172;22;20020;-84
2023/12/24 10:47:31;;;;;;;12.90;4.82;;;11.30;99.90;;;;;;6276284;22;20435;-85
2023/12/24 10:49:57;;;;;;;8.57;3.47;;;11.30;99.90;;;;;;6302772;22;20118;-85
2023/12/24 10:52:22;;;;;;;10.80;3.00;;;11.40;99.90;;;;;;6304294;22;20054;-85
2023/12/24 10:54:48;;;;;;;12.18;3.55;;;11.30;99.90;;;;;;6303044;22;20041;-84
2023/12/24 10:57:32;;;;;;;13.77;4.20;;;11.40;99.90;;;;;;6303944;22;20015;-84
2023/12/24 11:00:07;;;;;;;12.00;3.08;;;11.30;99.90;;;;;;6304525;22;20018;-84
2023/12/24 11:02:42;;;;;;;11.77;3.17;;;11.40;99.90;;;;;;6304356;22;20011;-84
2023/12/24 11:05:08;;;;;;;7.15;2.45;;;11.40;99.90;;;;;;6303694;22;20725;-83
2023/12/24 11:07:34;;;;;;;11.45;2.90;;;11.50;99.90;;;;;;6301933;22;20015;-83
2023/12/24 11:10:07;;;;;;;10.45;2.80;;;11.40;99.90;;;;;;6303824;22;20023;-84
2023/12/24 11:12:35;;;;;;;12.10;2.67;;;11.50;99.90;;;;;;6302148;22;20021;-83
2023/12/24 11:15:01;;;;;;;15.80;4.00;;;11.50;99.90;;;;;;6301989;22;20082;-84
2023/12/24 11:17:33;;;;;;;7.00;2.60;;;11.50;99.90;;;;;;6303195;22;20011;-84
2023/12/24 11:20:18;;;;;;;9.27;3.03;;;11.60;99.90;;;;;;6301460;22;20045;-84
2023/12/24 11:23:02;;;;;;;20.02;4.43;;;11.50;99.90;;;;;;6304186;22;20145;-83
2023/12/24 11:25:42;;;;;;;18.13;3.83;;;11.60;99.90;;;;;;6301776;22;20023;-77
2023/12/24 11:28:13;;;;;;;8.88;3.50;;;11.60;99.90;;;;;;6302960;22;20431;-77
2023/12/24 11:30:50;;;;;;;14.38;3.75;;;11.60;99.90;;;;;;6302794;22;20023;-78
2023/12/24 11:33:28;;;;;;;12.68;3.35;;;11.60;99.90;;;;;;6303665;22;20007;-79
2023/12/24 11:35:55;;;;;;;14.50;3.40;;;11.60;99.90;;;;;;6303509;22;20031;-78
2023/12/24 11:38:33;;;;;;;13.65;3.35;;;11.60;99.90;;;;;;6276040;22;20011;-85
2023/12/24 11:41:11;;;;;;;15.00;3.28;;;11.60;99.90;;;;;;6302046;22;20030;-84
2023/12/24 11:43:42;;;;;;;12.55;3.30;;;11.70;99.90;;;;;;6302118;22;20020;-84
2023/12/24 11:46:09;;;;;;;10.35;2.75;;;11.60;99.90;;;;;;6302048;22;20620;-84
2023/12/24 11:48:35;;;;;;;15.02;4.53;;;11.60;99.90;;;;;;6276301;22;20023;-84
2023/12/24 11:51:09;;;;;;;17.30;3.55;;;11.60;99.90;;;;;;6303336;22;20007;-84
2023/12/24 11:53:39;;;;;;;10.40;2.90;;;11.60;99.90;;;;;;6303834;22;20019;-83
2023/12/24 11:56:18;;;;;;;16.58;3.10;;;11.60;99.90;;;;;;6303275;22;20019;-83
2023/12/24 11:58:50;;;;;;;11.65;3.28;;;11.60;99.90;;;;;;6303351;22;20449;-84
2023/12/24 12:01:24;;;;;;;14.88;3.65;;;11.60;99.90;;;;;;6303583;22;20015;-84
2023/12/24 12:03:56;;;;;;;15.73;3.33;;;11.70;99.90;;;;;;6303687;22;20393;-84
2023/12/24 12:06:21;;;;;;;10.60;3.50;;;11.60;99.90;;;;;;6302022;22;20015;-85
2023/12/24 12:08:50;;;;;;;10.73;3.30;;;11.60;99.90;;;;;;6302296;22;20136;-85
2023/12/24 12:11:16;;;;;;;13.77;4.05;;;11.70;99.90;;;;;;6301578;22;20662;-85
2023/12/24 12:13:41;;;;;;;14.23;3.65;;;11.70;99.90;;;;;;6301524;22;20339;-85
2023/12/24 12:16:07;;;;;;;12.75;3.00;;;11.70;99.90;;;;;;6302349;22;20051;-86
2023/12/24 12:18:33;;;;;;;14.20;4.25;;;11.70;99.90;;;;;;6303918;22;20019;-87
2023/12/24 12:20:58;;;;;;;12.70;3.15;;;11.70;99.90;;;;;;6303090;22;20025;-86
2023/12/24 12:23:24;;;;;;;11.30;3.13;;;11.70;99.90;;;;;;6302943;22;20090;-86
2023/12/24 12:25:50;;;;;;;15.45;3.35;;;11.70;99.90;;;;;;6301181;22;20018;-85
2023/12/24 12:28:15;;;;;;;8.23;2.78;;;11.70;99.90;;;;;;6301716;22;20021;-86
2023/12/24 12:30:41;;;;;;;13.27;3.45;;;11.70;99.90;;;;;;6300604;22;20084;-84
2023/12/24 12:33:07;;;;;;;9.40;2.92;;;11.70;99.90;;;;;;6300521;22;20283;-85
2023/12/24 12:35:34;;;;;;;13.45;3.38;;;11.70;99.90;;;;;;6301143;22;20011;-85
2023/12/24 12:38:00;;;;;;;10.80;3.00;;;11.70;99.90;;;;;;6302730;22;20400;-85
2023/12/24 12:40:26;;;;;;;11.18;3.72;;;11.70;99.90;;;;;;6302627;22;20018;-84
2023/12/24 12:42:51;;;;;;;13.77;3.17;;;11.70;99.90;;;;;;6300184;22;20015;-83